sensor_id;sensor_type;location;lat;lon;timestamp;P1;durP1;ratioP1;P2;durP2;ratioP2
3849;SDS011;1940;51.052;13.678;2022-10-31T00:01:17;33.20;;;17.30;;
3849;SDS011;1940;51.052;13.678;2022-10-31T00:03:54;29.37;;;16.00;;
3849;SDS011;1940;51.052;13.678;2022-10-31T00:06:21;27.63;;;15.37;;
3849;SDS011;1940;51.052;13.678;2022-10-31T00:08:51;32.53;;;16.37;;
3849;SDS011;1940;51.052;13.678;2022-10-31T00:11:18;33.60;;;16.50;;
3849;SDS011;1940;51.052;13.678;2022-10-31T00:13:44;32.90;;;16.10;;
3849;SDS011;1940;51.052;13.678;2022-10-31T00:16:13;33.63;;;16.53;;
3849;SDS011;1940;51.052;13.678;2022-10-31T00:18:39;29.70;;;15.80;;
3849;SDS011;1940;51.052;13.678;2022-10-31T00:21:05;34.40;;;16.60;;
3849;SDS011;1940;51.052;13.678;2022-10-31T00:23:30;26.57;;;15.10;;
3849;SDS011;1940;51.052;13.678;2022-10-31T00:26:02;34.53;;;16.27;;
3849;SDS011;1940;51.052;13.678;2022-10-31T00:28:29;36.83;;;16.53;;
3849;SDS011;1940;51.052;13.678;2022-10-31T00:30:58;31.93;;;15.83;;
3849;SDS011;1940;51.052;13.678;2022-10-31T00:33:27;24.87;;;14.57;;
3849;SDS011;1940;51.052;13.678;2022-10-31T00:35:53;31.73;;;14.97;;
3849;SDS011;1940;51.052;13.678;2022-10-31T00:38:19;29.93;;;14.70;;
3849;SDS011;1940;51.052;13.678;2022-10-31T00:40:44;31.20;;;15.77;;
3849;SDS011;1940;51.052;13.678;2022-10-31T00:43:10;32.43;;;14.70;;
3849;SDS011;1940;51.052;13.678;2022-10-31T00:45:35;37.10;;;15.60;;
3849;SDS011;1940;51.052;13.678;2022-10-31T00:48:01;30.00;;;14.63;;
3849;SDS011;1940;51.052;13.678;2022-10-31T00:50:27;37.90;;;15.87;;
3849;SDS011;1940;51.052;13.678;2022-10-31T00:52:52;27.37;;;15.00;;
3849;SDS011;1940;51.052;13.678;2022-10-31T00:55:18;28.03;;;13.90;;
3849;SDS011;1940;51.052;13.678;2022-10-31T00:57:45;27.70;;;14.23;;
3849;SDS011;1940;51.052;13.678;2022-10-31T01:00:12;24.70;;;13.90;;
3849;SDS011;1940;51.052;13.678;2022-10-31T01:02:38;24.73;;;12.93;;
3849;SDS011;1940;51.052;13.678;2022-10-31T01:05:04;28.77;;;13.47;;
3849;SDS011;1940;51.052;13.678;2022-10-31T01:07:29;26.50;;;14.60;;
3849;SDS011;1940;51.052;13.678;2022-10-31T01:09:55;26.40;;;14.40;;
3849;SDS011;1940;51.052;13.678;2022-10-31T01:12:20;26.73;;;14.40;;
3849;SDS011;1940;51.052;13.678;2022-10-31T01:14:46;24.77;;;13.70;;
3849;SDS011;1940;51.052;13.678;2022-10-31T01:17:12;26.40;;;13.47;;
3849;SDS011;1940;51.052;13.678;2022-10-31T01:19:38;25.30;;;13.90;;
3849;SDS011;1940;51.052;13.678;2022-10-31T01:22:04;27.17;;;13.33;;
3849;SDS011;1940;51.052;13.678;2022-10-31T01:24:29;24.87;;;13.43;;
3849;SDS011;1940;51.052;13.678;2022-10-31T01:26:55;23.37;;;13.17;;
3849;SDS011;1940;51.052;13.678;2022-10-31T01:29:20;27.10;;;14.97;;
3849;SDS011;1940;51.052;13.678;2022-10-31T01:31:46;31.70;;;15.40;;
3849;SDS011;1940;51.052;13.678;2022-10-31T01:34:12;27.40;;;13.93;;
3849;SDS011;1940;51.052;13.678;2022-10-31T01:36:40;29.70;;;12.77;;
3849;SDS011;1940;51.052;13.678;2022-10-31T01:39:07;24.37;;;13.63;;
3849;SDS011;1940;51.052;13.678;2022-10-31T01:41:38;22.13;;;13.03;;
3849;SDS011;1940;51.052;13.678;2022-10-31T01:46:41;24.63;;;13.10;;
3849;SDS011;1940;51.052;13.678;2022-10-31T01:49:41;24.83;;;11.90;;
3849;SDS011;1940;51.052;13.678;2022-10-31T01:52:21;26.27;;;12.10;;
3849;SDS011;1940;51.052;13.678;2022-10-31T01:57:24;30.00;;;12.20;;
3849;SDS011;1940;51.052;13.678;2022-10-31T01:59:52;24.33;;;12.23;;
3849;SDS011;1940;51.052;13.678;2022-10-31T02:02:21;24.00;;;12.10;;
3849;SDS011;1940;51.052;13.678;2022-10-31T02:04:47;24.57;;;12.53;;
3849;SDS011;1940;51.052;13.678;2022-10-31T02:07:14;28.57;;;13.93;;
3849;SDS011;1940;51.052;13.678;2022-10-31T02:09:43;27.90;;;13.30;;
3849;SDS011;1940;51.052;13.678;2022-10-31T02:12:11;23.77;;;13.20;;
3849;SDS011;1940;51.052;13.678;2022-10-31T02:14:38;27.60;;;12.40;;
3849;SDS011;1940;51.052;13.678;2022-10-31T02:17:04;24.17;;;12.60;;
3849;SDS011;1940;51.052;13.678;2022-10-31T02:19:32;31.23;;;12.83;;
3849;SDS011;1940;51.052;13.678;2022-10-31T02:22:14;22.97;;;12.20;;
3849;SDS011;1940;51.052;13.678;2022-10-31T02:25:01;22.33;;;11.77;;
3849;SDS011;1940;51.052;13.678;2022-10-31T02:30:22;24.53;;;13.00;;
3849;SDS011;1940;51.052;13.678;2022-10-31T02:32:51;22.73;;;11.20;;
3849;SDS011;1940;51.052;13.678;2022-10-31T02:40:49;31.10;;;14.23;;
3849;SDS011;1940;51.052;13.678;2022-10-31T02:46:14;22.80;;;12.23;;
3849;SDS011;1940;51.052;13.678;2022-10-31T02:48:51;32.30;;;12.70;;
3849;SDS011;1940;51.052;13.678;2022-10-31T02:51:21;28.10;;;12.87;;
3849;SDS011;1940;51.052;13.678;2022-10-31T02:53:47;25.77;;;12.60;;
3849;SDS011;1940;51.052;13.678;2022-10-31T02:56:14;22.50;;;11.77;;
3849;SDS011;1940;51.052;13.678;2022-10-31T02:58:42;23.70;;;13.10;;
3849;SDS011;1940;51.052;13.678;2022-10-31T03:03:53;22.07;;;11.80;;
3849;SDS011;1940;51.052;13.678;2022-10-31T03:06:33;25.20;;;12.40;;
3849;SDS011;1940;51.052;13.678;2022-10-31T03:09:16;24.53;;;12.73;;
3849;SDS011;1940;51.052;13.678;2022-10-31T03:12:01;23.20;;;12.30;;
3849;SDS011;1940;51.052;13.678;2022-10-31T03:17:09;26.93;;;12.23;;
3849;SDS011;1940;51.052;13.678;2022-10-31T03:19:49;28.83;;;13.03;;
3849;SDS011;1940;51.052;13.678;2022-10-31T03:22:22;35.93;;;12.97;;
3849;SDS011;1940;51.052;13.678;2022-10-31T03:24:50;30.17;;;12.33;;
3849;SDS011;1940;51.052;13.678;2022-10-31T03:27:19;22.43;;;11.77;;
3849;SDS011;1940;51.052;13.678;2022-10-31T03:29:49;25.20;;;11.90;;
3849;SDS011;1940;51.052;13.678;2022-10-31T03:32:19;27.30;;;13.60;;
3849;SDS011;1940;51.052;13.678;2022-10-31T03:34:53;23.53;;;12.27;;
3849;SDS011;1940;51.052;13.678;2022-10-31T03:37:21;19.80;;;11.20;;
3849;SDS011;1940;51.052;13.678;2022-10-31T03:39:50;21.77;;;12.10;;
3849;SDS011;1940;51.052;13.678;2022-10-31T03:42:20;22.53;;;11.47;;
3849;SDS011;1940;51.052;13.678;2022-10-31T03:44:53;26.07;;;11.77;;
3849;SDS011;1940;51.052;13.678;2022-10-31T03:47:20;28.60;;;11.70;;
3849;SDS011;1940;51.052;13.678;2022-10-31T03:49:47;27.33;;;12.53;;
3849;SDS011;1940;51.052;13.678;2022-10-31T03:52:26;22.57;;;11.40;;
3849;SDS011;1940;51.052;13.678;2022-10-31T03:54:57;22.10;;;11.43;;
3849;SDS011;1940;51.052;13.678;2022-10-31T03:57:38;23.93;;;11.60;;
3849;SDS011;1940;51.052;13.678;2022-10-31T04:00:18;20.33;;;11.60;;
3849;SDS011;1940;51.052;13.678;2022-10-31T04:02:50;25.00;;;12.40;;
3849;SDS011;1940;51.052;13.678;2022-10-31T04:05:16;23.60;;;11.47;;
3849;SDS011;1940;51.052;13.678;2022-10-31T04:07:44;21.63;;;11.47;;
3849;SDS011;1940;51.052;13.678;2022-10-31T04:10:14;25.20;;;11.77;;
3849;SDS011;1940;51.052;13.678;2022-10-31T04:12:41;26.10;;;12.90;;
3849;SDS011;1940;51.052;13.678;2022-10-31T04:15:12;27.80;;;12.00;;
3849;SDS011;1940;51.052;13.678;2022-10-31T04:17:39;22.80;;;12.53;;
3849;SDS011;1940;51.052;13.678;2022-10-31T04:20:07;24.73;;;12.63;;
3849;SDS011;1940;51.052;13.678;2022-10-31T04:22:33;25.17;;;12.90;;
3849;SDS011;1940;51.052;13.678;2022-10-31T04:24:59;20.93;;;12.20;;
3849;SDS011;1940;51.052;13.678;2022-10-31T04:27:25;20.40;;;12.13;;
3849;SDS011;1940;51.052;13.678;2022-10-31T04:29:50;22.70;;;11.97;;
3849;SDS011;1940;51.052;13.678;2022-10-31T04:32:16;25.03;;;11.00;;
3849;SDS011;1940;51.052;13.678;2022-10-31T04:34:41;21.23;;;11.13;;
3849;SDS011;1940;51.052;13.678;2022-10-31T04:37:07;27.97;;;11.50;;
3849;SDS011;1940;51.052;13.678;2022-10-31T04:39:32;22.57;;;11.73;;
3849;SDS011;1940;51.052;13.678;2022-10-31T04:41:58;23.83;;;12.90;;
3849;SDS011;1940;51.052;13.678;2022-10-31T04:44:23;28.40;;;12.33;;
3849;SDS011;1940;51.052;13.678;2022-10-31T04:46:49;22.80;;;12.43;;
3849;SDS011;1940;51.052;13.678;2022-10-31T04:49:15;24.93;;;11.30;;
3849;SDS011;1940;51.052;13.678;2022-10-31T04:51:40;31.13;;;11.87;;
3849;SDS011;1940;51.052;13.678;2022-10-31T04:54:06;31.47;;;12.27;;
3849;SDS011;1940;51.052;13.678;2022-10-31T04:56:31;22.50;;;12.60;;
3849;SDS011;1940;51.052;13.678;2022-10-31T04:58:57;27.73;;;11.80;;
3849;SDS011;1940;51.052;13.678;2022-10-31T05:01:22;25.77;;;12.20;;
3849;SDS011;1940;51.052;13.678;2022-10-31T05:03:48;23.20;;;11.73;;
3849;SDS011;1940;51.052;13.678;2022-10-31T05:06:13;19.90;;;10.87;;
3849;SDS011;1940;51.052;13.678;2022-10-31T05:08:41;26.37;;;12.17;;
3849;SDS011;1940;51.052;13.678;2022-10-31T05:11:06;23.07;;;11.93;;
3849;SDS011;1940;51.052;13.678;2022-10-31T05:13:32;21.50;;;11.53;;
3849;SDS011;1940;51.052;13.678;2022-10-31T05:15:57;22.80;;;11.57;;
3849;SDS011;1940;51.052;13.678;2022-10-31T05:18:23;28.10;;;12.57;;
3849;SDS011;1940;51.052;13.678;2022-10-31T05:20:48;24.40;;;11.20;;
3849;SDS011;1940;51.052;13.678;2022-10-31T05:23:14;22.90;;;10.63;;
3849;SDS011;1940;51.052;13.678;2022-10-31T05:25:40;25.20;;;12.00;;
3849;SDS011;1940;51.052;13.678;2022-10-31T05:28:06;21.80;;;11.40;;
3849;SDS011;1940;51.052;13.678;2022-10-31T05:30:32;16.80;;;10.70;;
3849;SDS011;1940;51.052;13.678;2022-10-31T05:32:58;24.30;;;11.10;;
3849;SDS011;1940;51.052;13.678;2022-10-31T05:35:26;20.33;;;11.40;;
3849;SDS011;1940;51.052;13.678;2022-10-31T05:37:53;26.73;;;11.10;;
3849;SDS011;1940;51.052;13.678;2022-10-31T05:40:19;24.33;;;11.67;;
3849;SDS011;1940;51.052;13.678;2022-10-31T05:42:45;18.23;;;10.33;;
3849;SDS011;1940;51.052;13.678;2022-10-31T05:45:13;18.77;;;11.00;;
3849;SDS011;1940;51.052;13.678;2022-10-31T05:47:40;20.50;;;11.00;;
3849;SDS011;1940;51.052;13.678;2022-10-31T05:50:06;25.13;;;10.20;;
3849;SDS011;1940;51.052;13.678;2022-10-31T05:52:33;20.80;;;10.07;;
3849;SDS011;1940;51.052;13.678;2022-10-31T05:54:59;22.27;;;11.87;;
3849;SDS011;1940;51.052;13.678;2022-10-31T05:57:25;21.50;;;9.97;;
3849;SDS011;1940;51.052;13.678;2022-10-31T05:59:51;19.23;;;10.93;;
3849;SDS011;1940;51.052;13.678;2022-10-31T06:02:19;19.80;;;10.90;;
3849;SDS011;1940;51.052;13.678;2022-10-31T06:04:45;24.50;;;10.60;;
3849;SDS011;1940;51.052;13.678;2022-10-31T06:07:11;26.70;;;11.53;;
3849;SDS011;1940;51.052;13.678;2022-10-31T06:09:38;19.60;;;10.37;;
3849;SDS011;1940;51.052;13.678;2022-10-31T06:12:12;19.80;;;9.90;;
3849;SDS011;1940;51.052;13.678;2022-10-31T06:14:37;25.37;;;12.60;;
3849;SDS011;1940;51.052;13.678;2022-10-31T06:17:03;20.53;;;10.77;;
3849;SDS011;1940;51.052;13.678;2022-10-31T06:19:28;22.40;;;11.20;;
3849;SDS011;1940;51.052;13.678;2022-10-31T06:21:54;20.40;;;10.10;;
3849;SDS011;1940;51.052;13.678;2022-10-31T06:24:19;22.00;;;10.80;;
3849;SDS011;1940;51.052;13.678;2022-10-31T06:26:45;19.63;;;10.20;;
3849;SDS011;1940;51.052;13.678;2022-10-31T06:29:10;17.30;;;10.30;;
3849;SDS011;1940;51.052;13.678;2022-10-31T06:31:36;16.20;;;9.87;;
3849;SDS011;1940;51.052;13.678;2022-10-31T06:34:01;18.10;;;10.60;;
3849;SDS011;1940;51.052;13.678;2022-10-31T06:36:27;18.83;;;10.47;;
3849;SDS011;1940;51.052;13.678;2022-10-31T06:38:52;19.17;;;10.53;;
3849;SDS011;1940;51.052;13.678;2022-10-31T06:41:18;20.17;;;11.80;;
3849;SDS011;1940;51.052;13.678;2022-10-31T06:43:45;23.83;;;10.70;;
3849;SDS011;1940;51.052;13.678;2022-10-31T06:46:12;21.63;;;11.10;;
3849;SDS011;1940;51.052;13.678;2022-10-31T06:48:37;18.47;;;10.40;;
3849;SDS011;1940;51.052;13.678;2022-10-31T06:51:03;19.50;;;10.80;;
3849;SDS011;1940;51.052;13.678;2022-10-31T06:53:28;22.37;;;11.20;;
3849;SDS011;1940;51.052;13.678;2022-10-31T06:55:57;22.27;;;10.87;;
3849;SDS011;1940;51.052;13.678;2022-10-31T06:58:23;19.83;;;10.13;;
3849;SDS011;1940;51.052;13.678;2022-10-31T07:00:49;22.40;;;10.70;;
3849;SDS011;1940;51.052;13.678;2022-10-31T07:03:14;17.23;;;10.20;;
3849;SDS011;1940;51.052;13.678;2022-10-31T07:05:41;19.47;;;10.90;;
3849;SDS011;1940;51.052;13.678;2022-10-31T07:08:08;16.83;;;10.17;;
3849;SDS011;1940;51.052;13.678;2022-10-31T07:10:35;15.90;;;9.77;;
3849;SDS011;1940;51.052;13.678;2022-10-31T07:13:04;18.03;;;11.03;;
3849;SDS011;1940;51.052;13.678;2022-10-31T07:15:35;16.87;;;10.40;;
3849;SDS011;1940;51.052;13.678;2022-10-31T07:18:03;17.60;;;10.17;;
3849;SDS011;1940;51.052;13.678;2022-10-31T07:20:30;16.13;;;10.17;;
3849;SDS011;1940;51.052;13.678;2022-10-31T07:22:56;14.73;;;9.10;;
3849;SDS011;1940;51.052;13.678;2022-10-31T07:25:22;18.17;;;10.33;;
3849;SDS011;1940;51.052;13.678;2022-10-31T07:27:48;17.87;;;9.67;;
3849;SDS011;1940;51.052;13.678;2022-10-31T07:30:14;20.70;;;10.27;;
3849;SDS011;1940;51.052;13.678;2022-10-31T07:32:43;17.67;;;10.90;;
3849;SDS011;1940;51.052;13.678;2022-10-31T07:35:11;19.63;;;10.47;;
3849;SDS011;1940;51.052;13.678;2022-10-31T07:37:38;17.70;;;10.60;;
3849;SDS011;1940;51.052;13.678;2022-10-31T07:40:04;18.13;;;10.80;;
3849;SDS011;1940;51.052;13.678;2022-10-31T07:42:35;18.47;;;10.43;;
3849;SDS011;1940;51.052;13.678;2022-10-31T07:45:01;19.00;;;10.33;;
3849;SDS011;1940;51.052;13.678;2022-10-31T07:47:28;18.80;;;9.90;;
3849;SDS011;1940;51.052;13.678;2022-10-31T07:49:53;19.93;;;8.67;;
3849;SDS011;1940;51.052;13.678;2022-10-31T07:52:19;17.67;;;9.20;;
3849;SDS011;1940;51.052;13.678;2022-10-31T07:54:44;19.30;;;9.00;;
3849;SDS011;1940;51.052;13.678;2022-10-31T07:57:10;14.93;;;8.17;;
3849;SDS011;1940;51.052;13.678;2022-10-31T07:59:35;14.03;;;7.57;;
3849;SDS011;1940;51.052;13.678;2022-10-31T08:02:01;15.63;;;8.13;;
3849;SDS011;1940;51.052;13.678;2022-10-31T08:04:27;24.13;;;8.40;;
3849;SDS011;1940;51.052;13.678;2022-10-31T08:06:52;12.67;;;7.73;;
3849;SDS011;1940;51.052;13.678;2022-10-31T08:09:18;17.43;;;8.60;;
3849;SDS011;1940;51.052;13.678;2022-10-31T08:11:43;14.67;;;8.20;;
3849;SDS011;1940;51.052;13.678;2022-10-31T08:14:08;14.70;;;9.00;;
3849;SDS011;1940;51.052;13.678;2022-10-31T08:16:34;11.27;;;7.70;;
3849;SDS011;1940;51.052;13.678;2022-10-31T08:18:59;15.07;;;6.70;;
3849;SDS011;1940;51.052;13.678;2022-10-31T08:21:25;12.83;;;7.43;;
3849;SDS011;1940;51.052;13.678;2022-10-31T08:23:51;9.73;;;6.33;;
3849;SDS011;1940;51.052;13.678;2022-10-31T08:26:17;9.37;;;6.70;;
3849;SDS011;1940;51.052;13.678;2022-10-31T08:28:42;8.67;;;5.67;;
3849;SDS011;1940;51.052;13.678;2022-10-31T08:31:08;11.00;;;6.00;;
3849;SDS011;1940;51.052;13.678;2022-10-31T08:33:34;8.13;;;5.60;;
3849;SDS011;1940;51.052;13.678;2022-10-31T08:36:00;11.43;;;6.50;;
3849;SDS011;1940;51.052;13.678;2022-10-31T08:38:26;9.53;;;5.80;;
3849;SDS011;1940;51.052;13.678;2022-10-31T08:40:51;10.23;;;5.87;;
3849;SDS011;1940;51.052;13.678;2022-10-31T08:43:17;8.37;;;4.70;;
3849;SDS011;1940;51.052;13.678;2022-10-31T08:45:44;7.30;;;5.10;;
3849;SDS011;1940;51.052;13.678;2022-10-31T08:48:13;7.13;;;4.70;;
3849;SDS011;1940;51.052;13.678;2022-10-31T08:50:40;5.50;;;4.33;;
3849;SDS011;1940;51.052;13.678;2022-10-31T08:53:07;10.53;;;5.10;;
3849;SDS011;1940;51.052;13.678;2022-10-31T08:55:37;6.23;;;4.80;;
3849;SDS011;1940;51.052;13.678;2022-10-31T08:58:05;11.20;;;4.90;;
3849;SDS011;1940;51.052;13.678;2022-10-31T09:00:32;5.93;;;3.90;;
3849;SDS011;1940;51.052;13.678;2022-10-31T09:02:59;6.23;;;4.70;;
3849;SDS011;1940;51.052;13.678;2022-10-31T09:05:29;5.33;;;4.10;;
3849;SDS011;1940;51.052;13.678;2022-10-31T09:07:56;6.23;;;4.90;;
3849;SDS011;1940;51.052;13.678;2022-10-31T09:10:23;7.33;;;5.00;;
3849;SDS011;1940;51.052;13.678;2022-10-31T09:12:54;5.80;;;4.50;;
3849;SDS011;1940;51.052;13.678;2022-10-31T09:15:21;9.90;;;5.30;;
3849;SDS011;1940;51.052;13.678;2022-10-31T09:17:47;11.10;;;4.70;;
3849;SDS011;1940;51.052;13.678;2022-10-31T09:20:13;9.40;;;5.20;;
3849;SDS011;1940;51.052;13.678;2022-10-31T09:22:38;6.80;;;4.40;;
3849;SDS011;1940;51.052;13.678;2022-10-31T09:25:04;8.70;;;4.67;;
3849;SDS011;1940;51.052;13.678;2022-10-31T09:27:30;7.27;;;4.67;;
3849;SDS011;1940;51.052;13.678;2022-10-31T09:29:55;8.83;;;4.70;;
3849;SDS011;1940;51.052;13.678;2022-10-31T09:32:21;10.23;;;4.70;;
3849;SDS011;1940;51.052;13.678;2022-10-31T09:34:46;6.20;;;4.30;;
3849;SDS011;1940;51.052;13.678;2022-10-31T09:37:12;7.67;;;4.63;;
3849;SDS011;1940;51.052;13.678;2022-10-31T09:39:37;6.00;;;4.67;;
3849;SDS011;1940;51.052;13.678;2022-10-31T09:42:09;7.17;;;4.60;;
3849;SDS011;1940;51.052;13.678;2022-10-31T09:47:24;9.50;;;5.57;;
3849;SDS011;1940;51.052;13.678;2022-10-31T09:50:11;6.47;;;4.90;;
3849;SDS011;1940;51.052;13.678;2022-10-31T09:52:56;7.93;;;5.13;;
3849;SDS011;1940;51.052;13.678;2022-10-31T09:55:31;7.67;;;4.63;;
3849;SDS011;1940;51.052;13.678;2022-10-31T09:58:02;6.60;;;4.80;;
3849;SDS011;1940;51.052;13.678;2022-10-31T10:00:28;6.10;;;5.00;;
3849;SDS011;1940;51.052;13.678;2022-10-31T10:05:51;8.40;;;4.70;;
3849;SDS011;1940;51.052;13.678;2022-10-31T10:08:27;7.53;;;5.43;;
3849;SDS011;1940;51.052;13.678;2022-10-31T10:11:08;7.50;;;5.20;;
3849;SDS011;1940;51.052;13.678;2022-10-31T10:16:38;6.23;;;4.93;;
3849;SDS011;1940;51.052;13.678;2022-10-31T10:25:34;13.13;;;5.47;;
3849;SDS011;1940;51.052;13.678;2022-10-31T10:28:23;8.60;;;5.37;;
3849;SDS011;1940;51.052;13.678;2022-10-31T10:31:03;10.20;;;5.30;;
3849;SDS011;1940;51.052;13.678;2022-10-31T10:33:33;6.93;;;4.73;;
3849;SDS011;1940;51.052;13.678;2022-10-31T10:36:08;9.30;;;5.17;;
3849;SDS011;1940;51.052;13.678;2022-10-31T10:38:45;9.07;;;5.53;;
3849;SDS011;1940;51.052;13.678;2022-10-31T10:41:23;14.53;;;5.63;;
3849;SDS011;1940;51.052;13.678;2022-10-31T10:43:52;8.03;;;5.53;;
3849;SDS011;1940;51.052;13.678;2022-10-31T10:49:41;8.67;;;5.37;;
3849;SDS011;1940;51.052;13.678;2022-10-31T10:52:33;12.60;;;5.87;;
3849;SDS011;1940;51.052;13.678;2022-10-31T10:55:16;9.87;;;5.83;;
3849;SDS011;1940;51.052;13.678;2022-10-31T10:57:55;12.03;;;5.57;;
3849;SDS011;1940;51.052;13.678;2022-10-31T11:00:27;5.70;;;5.07;;
3849;SDS011;1940;51.052;13.678;2022-10-31T11:02:56;12.50;;;5.57;;
3849;SDS011;1940;51.052;13.678;2022-10-31T11:05:33;7.70;;;5.13;;
3849;SDS011;1940;51.052;13.678;2022-10-31T11:08:04;9.00;;;5.23;;
3849;SDS011;1940;51.052;13.678;2022-10-31T11:10:30;12.37;;;4.80;;
3849;SDS011;1940;51.052;13.678;2022-10-31T11:13:00;14.20;;;6.03;;
3849;SDS011;1940;51.052;13.678;2022-10-31T11:18:31;7.90;;;4.90;;
3849;SDS011;1940;51.052;13.678;2022-10-31T11:21:00;8.53;;;5.17;;
3849;SDS011;1940;51.052;13.678;2022-10-31T11:23:29;8.17;;;5.03;;
3849;SDS011;1940;51.052;13.678;2022-10-31T11:25:56;11.07;;;4.90;;
3849;SDS011;1940;51.052;13.678;2022-10-31T11:28:26;8.17;;;4.60;;
3849;SDS011;1940;51.052;13.678;2022-10-31T11:30:56;8.13;;;5.30;;
3849;SDS011;1940;51.052;13.678;2022-10-31T11:36:32;10.27;;;6.07;;
3849;SDS011;1940;51.052;13.678;2022-10-31T11:39:03;12.37;;;6.60;;
3849;SDS011;1940;51.052;13.678;2022-10-31T11:41:31;11.87;;;5.70;;
3849;SDS011;1940;51.052;13.678;2022-10-31T11:44:04;6.60;;;5.03;;
3849;SDS011;1940;51.052;13.678;2022-10-31T11:46:39;8.70;;;6.00;;
3849;SDS011;1940;51.052;13.678;2022-10-31T11:49:13;12.07;;;5.47;;
3849;SDS011;1940;51.052;13.678;2022-10-31T11:51:54;14.37;;;5.60;;
3849;SDS011;1940;51.052;13.678;2022-10-31T11:54:24;10.60;;;5.80;;
3849;SDS011;1940;51.052;13.678;2022-10-31T11:56:54;8.00;;;5.93;;
3849;SDS011;1940;51.052;13.678;2022-10-31T11:59:25;11.70;;;5.53;;
3849;SDS011;1940;51.052;13.678;2022-10-31T12:01:56;10.10;;;5.83;;
3849;SDS011;1940;51.052;13.678;2022-10-31T12:04:26;15.53;;;6.40;;
3849;SDS011;1940;51.052;13.678;2022-10-31T12:07:02;12.80;;;7.10;;
3849;SDS011;1940;51.052;13.678;2022-10-31T12:09:28;11.30;;;6.37;;
3849;SDS011;1940;51.052;13.678;2022-10-31T12:12:08;16.93;;;6.67;;
3849;SDS011;1940;51.052;13.678;2022-10-31T12:17:30;10.83;;;5.67;;
3849;SDS011;1940;51.052;13.678;2022-10-31T12:23:33;13.43;;;6.90;;
3849;SDS011;1940;51.052;13.678;2022-10-31T12:26:14;10.03;;;6.40;;
3849;SDS011;1940;51.052;13.678;2022-10-31T12:37:24;13.93;;;6.50;;
3849;SDS011;1940;51.052;13.678;2022-10-31T12:48:33;18.20;;;7.30;;
3849;SDS011;1940;51.052;13.678;2022-10-31T12:57:18;12.67;;;5.83;;
3849;SDS011;1940;51.052;13.678;2022-10-31T12:59:51;11.40;;;6.10;;
3849;SDS011;1940;51.052;13.678;2022-10-31T13:02:22;15.20;;;6.37;;
3849;SDS011;1940;51.052;13.678;2022-10-31T13:05:14;14.50;;;6.90;;
3849;SDS011;1940;51.052;13.678;2022-10-31T13:08:08;13.33;;;5.60;;
3849;SDS011;1940;51.052;13.678;2022-10-31T13:13:12;14.37;;;6.10;;
3849;SDS011;1940;51.052;13.678;2022-10-31T13:15:58;11.67;;;5.90;;
3849;SDS011;1940;51.052;13.678;2022-10-31T13:21:07;13.20;;;6.60;;
3849;SDS011;1940;51.052;13.678;2022-10-31T13:23:37;17.07;;;6.07;;
3849;SDS011;1940;51.052;13.678;2022-10-31T13:26:15;13.30;;;6.53;;
3849;SDS011;1940;51.052;13.678;2022-10-31T13:29:06;12.57;;;5.40;;
3849;SDS011;1940;51.052;13.678;2022-10-31T13:32:03;14.33;;;5.40;;
3849;SDS011;1940;51.052;13.678;2022-10-31T13:34:32;13.53;;;6.33;;
3849;SDS011;1940;51.052;13.678;2022-10-31T13:43:17;9.83;;;5.80;;
3849;SDS011;1940;51.052;13.678;2022-10-31T13:45:56;11.13;;;5.73;;
3849;SDS011;1940;51.052;13.678;2022-10-31T13:50:58;18.83;;;6.43;;
3849;SDS011;1940;51.052;13.678;2022-10-31T13:53:37;12.57;;;6.60;;
3849;SDS011;1940;51.052;13.678;2022-10-31T13:56:11;10.80;;;5.57;;
3849;SDS011;1940;51.052;13.678;2022-10-31T13:58:42;11.00;;;5.90;;
3849;SDS011;1940;51.052;13.678;2022-10-31T14:01:22;13.60;;;6.50;;
3849;SDS011;1940;51.052;13.678;2022-10-31T14:03:56;19.73;;;5.90;;
3849;SDS011;1940;51.052;13.678;2022-10-31T14:06:49;15.00;;;5.67;;
3849;SDS011;1940;51.052;13.678;2022-10-31T14:09:31;13.67;;;5.60;;
3849;SDS011;1940;51.052;13.678;2022-10-31T14:12:42;16.17;;;5.93;;
3849;SDS011;1940;51.052;13.678;2022-10-31T14:14:52;12.93;;;5.30;;
3849;SDS011;1940;51.052;13.678;2022-10-31T14:17:23;13.43;;;6.97;;
3849;SDS011;1940;51.052;13.678;2022-10-31T14:19:59;13.50;;;5.60;;
3849;SDS011;1940;51.052;13.678;2022-10-31T14:22:48;15.53;;;5.30;;
3849;SDS011;1940;51.052;13.678;2022-10-31T14:25:33;9.37;;;5.10;;
3849;SDS011;1940;51.052;13.678;2022-10-31T14:28:01;8.90;;;5.20;;
3849;SDS011;1940;51.052;13.678;2022-10-31T14:30:50;12.57;;;7.10;;
3849;SDS011;1940;51.052;13.678;2022-10-31T14:33:18;11.63;;;5.40;;
3849;SDS011;1940;51.052;13.678;2022-10-31T14:35:53;17.80;;;6.03;;
3849;SDS011;1940;51.052;13.678;2022-10-31T14:38:28;14.57;;;5.20;;
3849;SDS011;1940;51.052;13.678;2022-10-31T14:43:53;11.90;;;5.60;;
3849;SDS011;1940;51.052;13.678;2022-10-31T14:46:29;13.67;;;6.47;;
3849;SDS011;1940;51.052;13.678;2022-10-31T14:49:12;9.80;;;5.13;;
3849;SDS011;1940;51.052;13.678;2022-10-31T14:52:04;9.43;;;5.30;;
3849;SDS011;1940;51.052;13.678;2022-10-31T14:54:40;9.33;;;5.57;;
3849;SDS011;1940;51.052;13.678;2022-10-31T14:57:15;10.47;;;6.03;;
3849;SDS011;1940;51.052;13.678;2022-10-31T14:59:46;10.93;;;6.00;;
3849;SDS011;1940;51.052;13.678;2022-10-31T15:02:18;16.77;;;5.90;;
3849;SDS011;1940;51.052;13.678;2022-10-31T15:05:13;8.43;;;5.40;;
3849;SDS011;1940;51.052;13.678;2022-10-31T15:07:51;11.00;;;6.20;;
3849;SDS011;1940;51.052;13.678;2022-10-31T15:10:22;14.17;;;6.20;;
3849;SDS011;1940;51.052;13.678;2022-10-31T15:12:50;11.80;;;6.33;;
3849;SDS011;1940;51.052;13.678;2022-10-31T15:17:53;15.90;;;8.80;;
3849;SDS011;1940;51.052;13.678;2022-10-31T15:20:22;16.30;;;8.67;;
3849;SDS011;1940;51.052;13.678;2022-10-31T15:22:51;19.70;;;10.43;;
3849;SDS011;1940;51.052;13.678;2022-10-31T15:25:20;24.97;;;12.00;;
3849;SDS011;1940;51.052;13.678;2022-10-31T15:27:50;25.13;;;12.80;;
3849;SDS011;1940;51.052;13.678;2022-10-31T15:30:24;26.47;;;12.30;;
3849;SDS011;1940;51.052;13.678;2022-10-31T15:32:51;26.17;;;12.20;;
3849;SDS011;1940;51.052;13.678;2022-10-31T15:35:19;26.70;;;12.07;;
3849;SDS011;1940;51.052;13.678;2022-10-31T15:37:47;26.03;;;11.53;;
3849;SDS011;1940;51.052;13.678;2022-10-31T15:40:16;18.80;;;10.00;;
3849;SDS011;1940;51.052;13.678;2022-10-31T15:42:45;32.27;;;13.87;;
3849;SDS011;1940;51.052;13.678;2022-10-31T15:45:17;64.77;;;42.00;;
3849;SDS011;1940;51.052;13.678;2022-10-31T15:50:32;111.03;;;69.27;;
3849;SDS011;1940;51.052;13.678;2022-10-31T15:53:02;123.10;;;82.17;;
3849;SDS011;1940;51.052;13.678;2022-10-31T15:55:31;98.47;;;62.40;;
3849;SDS011;1940;51.052;13.678;2022-10-31T15:58:02;38.93;;;26.90;;
3849;SDS011;1940;51.052;13.678;2022-10-31T16:00:35;98.70;;;46.40;;
3849;SDS011;1940;51.052;13.678;2022-10-31T16:05:44;125.30;;;57.30;;
3849;SDS011;1940;51.052;13.678;2022-10-31T16:08:23;78.97;;;35.97;;
3849;SDS011;1940;51.052;13.678;2022-10-31T16:13:36;35.47;;;19.10;;
3849;SDS011;1940;51.052;13.678;2022-10-31T16:16:13;33.10;;;16.00;;
3849;SDS011;1940;51.052;13.678;2022-10-31T16:18:40;32.20;;;15.33;;
3849;SDS011;1940;51.052;13.678;2022-10-31T16:21:06;25.10;;;14.07;;
3849;SDS011;1940;51.052;13.678;2022-10-31T16:23:33;26.80;;;13.40;;
3849;SDS011;1940;51.052;13.678;2022-10-31T16:25:59;21.87;;;11.40;;
3849;SDS011;1940;51.052;13.678;2022-10-31T16:28:30;20.87;;;12.80;;
3849;SDS011;1940;51.052;13.678;2022-10-31T16:30:57;26.13;;;13.50;;
3849;SDS011;1940;51.052;13.678;2022-10-31T16:33:32;21.30;;;13.63;;
3849;SDS011;1940;51.052;13.678;2022-10-31T16:36:01;24.47;;;13.63;;
3849;SDS011;1940;51.052;13.678;2022-10-31T16:38:45;33.57;;;16.73;;
3849;SDS011;1940;51.052;13.678;2022-10-31T16:41:11;51.63;;;30.60;;
3849;SDS011;1940;51.052;13.678;2022-10-31T16:43:36;45.43;;;28.47;;